sensor_id;sensor_type;location;lat;lon;timestamp;P1;durP1;ratioP1;P2;durP2;ratioP2
49296;SDS011;35163;48.878;18.040;2022-11-11T00:00:50;55.90;;;27.08;;
49296;SDS011;35163;48.878;18.040;2022-11-11T00:03:24;53.40;;;24.33;;
49296;SDS011;35163;48.878;18.040;2022-11-11T00:05:52;57.05;;;24.65;;
49296;SDS011;35163;48.878;18.040;2022-11-11T00:08:18;83.10;;;26.10;;
49296;SDS011;35163;48.878;18.040;2022-11-11T00:10:45;52.50;;;25.02;;
49296;SDS011;35163;48.878;18.040;2022-11-11T00:13:12;58.47;;;25.98;;
49296;SDS011;35163;48.878;18.040;2022-11-11T00:15:38;72.00;;;27.98;;
49296;SDS011;35163;48.878;18.040;2022-11-11T00:18:05;89.35;;;31.73;;
49296;SDS011;35163;48.878;18.040;2022-11-11T00:20:50;55.10;;;28.23;;
49296;SDS011;35163;48.878;18.040;2022-11-11T00:23:35;112.93;;;30.33;;
49296;SDS011;35163;48.878;18.040;2022-11-11T00:26:21;99.82;;;30.52;;
49296;SDS011;35163;48.878;18.040;2022-11-11T00:29:04;66.07;;;29.27;;
49296;SDS011;35163;48.878;18.040;2022-11-11T00:31:31;62.33;;;29.30;;
49296;SDS011;35163;48.878;18.040;2022-11-11T00:33:57;65.25;;;28.42;;
49296;SDS011;35163;48.878;18.040;2022-11-11T00:36:24;61.58;;;28.55;;
49296;SDS011;35163;48.878;18.040;2022-11-11T00:38:51;60.95;;;27.48;;
49296;SDS011;35163;48.878;18.040;2022-11-11T00:41:22;58.53;;;28.30;;
49296;SDS011;35163;48.878;18.040;2022-11-11T00:43:49;55.35;;;27.45;;
49296;SDS011;35163;48.878;18.040;2022-11-11T00:46:16;49.47;;;25.25;;
49296;SDS011;35163;48.878;18.040;2022-11-11T00:49:01;43.85;;;22.95;;
49296;SDS011;35163;48.878;18.040;2022-11-11T00:51:45;51.50;;;26.08;;
49296;SDS011;35163;48.878;18.040;2022-11-11T00:54:12;57.40;;;25.98;;
49296;SDS011;35163;48.878;18.040;2022-11-11T00:56:39;50.85;;;25.17;;
49296;SDS011;35163;48.878;18.040;2022-11-11T00:59:07;49.58;;;23.77;;
49296;SDS011;35163;48.878;18.040;2022-11-11T01:01:35;45.90;;;24.38;;
49296;SDS011;35163;48.878;18.040;2022-11-11T01:04:04;47.28;;;24.20;;
49296;SDS011;35163;48.878;18.040;2022-11-11T01:06:31;49.90;;;24.10;;
49296;SDS011;35163;48.878;18.040;2022-11-11T01:09:03;49.45;;;24.98;;
49296;SDS011;35163;48.878;18.040;2022-11-11T01:11:30;47.47;;;24.73;;
49296;SDS011;35163;48.878;18.040;2022-11-11T01:13:56;48.17;;;24.77;;
49296;SDS011;35163;48.878;18.040;2022-11-11T01:16:24;46.10;;;22.58;;
49296;SDS011;35163;48.878;18.040;2022-11-11T01:18:52;47.13;;;24.42;;
49296;SDS011;35163;48.878;18.040;2022-11-11T01:21:23;48.75;;;23.80;;
49296;SDS011;35163;48.878;18.040;2022-11-11T01:23:51;59.15;;;24.17;;
49296;SDS011;35163;48.878;18.040;2022-11-11T01:26:25;51.55;;;24.30;;
49296;SDS011;35163;48.878;18.040;2022-11-11T01:28:57;51.42;;;25.25;;
49296;SDS011;35163;48.878;18.040;2022-11-11T01:31:25;93.90;;;27.13;;
49296;SDS011;35163;48.878;18.040;2022-11-11T01:33:52;55.28;;;23.38;;
49296;SDS011;35163;48.878;18.040;2022-11-11T01:36:24;117.57;;;26.17;;
49296;SDS011;35163;48.878;18.040;2022-11-11T01:38:52;111.35;;;26.65;;
49296;SDS011;35163;48.878;18.040;2022-11-11T01:41:23;93.78;;;26.92;;
49296;SDS011;35163;48.878;18.040;2022-11-11T01:49:33;51.63;;;24.95;;
49296;SDS011;35163;48.878;18.040;2022-11-11T01:52:21;52.33;;;24.65;;
49296;SDS011;35163;48.878;18.040;2022-11-11T01:54:54;53.40;;;24.98;;
49296;SDS011;35163;48.878;18.040;2022-11-11T01:57:35;93.35;;;25.98;;
49296;SDS011;35163;48.878;18.040;2022-11-11T02:00:09;52.03;;;24.85;;
49296;SDS011;35163;48.878;18.040;2022-11-11T02:02:48;80.15;;;27.88;;
49296;SDS011;35163;48.878;18.040;2022-11-11T02:05:21;58.30;;;24.90;;
49296;SDS011;35163;48.878;18.040;2022-11-11T02:08:08;65.28;;;25.85;;
49296;SDS011;35163;48.878;18.040;2022-11-11T02:10:38;64.13;;;27.73;;
49296;SDS011;35163;48.878;18.040;2022-11-11T02:13:09;90.45;;;26.88;;
49296;SDS011;35163;48.878;18.040;2022-11-11T02:15:57;63.78;;;26.10;;
49296;SDS011;35163;48.878;18.040;2022-11-11T02:18:24;107.57;;;24.05;;
49296;SDS011;35163;48.878;18.040;2022-11-11T02:20:52;65.68;;;23.60;;
49296;SDS011;35163;48.878;18.040;2022-11-11T02:26:33;57.65;;;22.85;;
49296;SDS011;35163;48.878;18.040;2022-11-11T02:29:02;93.00;;;23.67;;
49296;SDS011;35163;48.878;18.040;2022-11-11T02:31:33;70.35;;;23.98;;
49296;SDS011;35163;48.878;18.040;2022-11-11T02:34:00;60.00;;;23.75;;
49296;SDS011;35163;48.878;18.040;2022-11-11T02:36:27;48.22;;;23.00;;
49296;SDS011;35163;48.878;18.040;2022-11-11T02:38:54;59.28;;;23.65;;
49296;SDS011;35163;48.878;18.040;2022-11-11T02:41:20;54.38;;;20.33;;
49296;SDS011;35163;48.878;18.040;2022-11-11T02:44:05;44.28;;;20.48;;
49296;SDS011;35163;48.878;18.040;2022-11-11T02:46:32;42.08;;;21.15;;
49296;SDS011;35163;48.878;18.040;2022-11-11T02:48:58;50.47;;;23.27;;
49296;SDS011;35163;48.878;18.040;2022-11-11T02:51:25;60.70;;;20.17;;
49296;SDS011;35163;48.878;18.040;2022-11-11T02:53:52;43.40;;;21.63;;
49296;SDS011;35163;48.878;18.040;2022-11-11T02:56:24;42.00;;;19.17;;
49296;SDS011;35163;48.878;18.040;2022-11-11T02:59:09;35.63;;;19.40;;
49296;SDS011;35163;48.878;18.040;2022-11-11T03:01:36;40.33;;;18.35;;
49296;SDS011;35163;48.878;18.040;2022-11-11T03:04:03;42.13;;;19.75;;
49296;SDS011;35163;48.878;18.040;2022-11-11T03:06:30;45.55;;;21.35;;
49296;SDS011;35163;48.878;18.040;2022-11-11T03:08:57;44.53;;;21.80;;
49296;SDS011;35163;48.878;18.040;2022-11-11T03:11:24;40.08;;;20.27;;
49296;SDS011;35163;48.878;18.040;2022-11-11T03:13:55;44.30;;;20.20;;
49296;SDS011;35163;48.878;18.040;2022-11-11T03:16:23;46.78;;;22.02;;
49296;SDS011;35163;48.878;18.040;2022-11-11T03:19:08;37.05;;;20.33;;
49296;SDS011;35163;48.878;18.040;2022-11-11T03:21:35;41.40;;;20.45;;
49296;SDS011;35163;48.878;18.040;2022-11-11T03:24:22;46.70;;;22.30;;
49296;SDS011;35163;48.878;18.040;2022-11-11T03:26:48;65.78;;;24.52;;
49296;SDS011;35163;48.878;18.040;2022-11-11T03:29:15;49.60;;;22.17;;
49296;SDS011;35163;48.878;18.040;2022-11-11T03:31:42;45.72;;;20.98;;
49296;SDS011;35163;48.878;18.040;2022-11-11T03:34:08;43.70;;;20.77;;
49296;SDS011;35163;48.878;18.040;2022-11-11T03:36:43;58.50;;;23.40;;
49296;SDS011;35163;48.878;18.040;2022-11-11T03:39:29;70.53;;;27.85;;
49296;SDS011;35163;48.878;18.040;2022-11-11T03:41:56;66.43;;;24.52;;
49296;SDS011;35163;48.878;18.040;2022-11-11T03:44:23;110.93;;;26.02;;
49296;SDS011;35163;48.878;18.040;2022-11-11T03:46:49;54.70;;;24.35;;
49296;SDS011;35163;48.878;18.040;2022-11-11T03:49:16;54.33;;;23.60;;
49296;SDS011;35163;48.878;18.040;2022-11-11T03:51:42;56.83;;;24.35;;
49296;SDS011;35163;48.878;18.040;2022-11-11T03:54:09;70.05;;;25.85;;
49296;SDS011;35163;48.878;18.040;2022-11-11T03:56:35;56.55;;;23.65;;
49296;SDS011;35163;48.878;18.040;2022-11-11T03:59:02;58.92;;;24.10;;
49296;SDS011;35163;48.878;18.040;2022-11-11T04:01:29;57.28;;;25.40;;
49296;SDS011;35163;48.878;18.040;2022-11-11T04:04:14;56.13;;;24.30;;
49296;SDS011;35163;48.878;18.040;2022-11-11T04:06:59;56.92;;;23.60;;
49296;SDS011;35163;48.878;18.040;2022-11-11T04:09:44;53.67;;;23.85;;
49296;SDS011;35163;48.878;18.040;2022-11-11T04:12:29;55.72;;;24.70;;
49296;SDS011;35163;48.878;18.040;2022-11-11T04:14:57;97.30;;;26.98;;
49296;SDS011;35163;48.878;18.040;2022-11-11T04:20:08;54.42;;;24.10;;
49296;SDS011;35163;48.878;18.040;2022-11-11T04:22:54;53.53;;;23.23;;
49296;SDS011;35163;48.878;18.040;2022-11-11T04:25:21;57.08;;;26.33;;
49296;SDS011;35163;48.878;18.040;2022-11-11T04:28:07;68.25;;;25.17;;
49296;SDS011;35163;48.878;18.040;2022-11-11T04:30:52;134.68;;;29.20;;
49296;SDS011;35163;48.878;18.040;2022-11-11T04:33:18;102.35;;;24.10;;
49296;SDS011;35163;48.878;18.040;2022-11-11T04:35:48;68.90;;;24.58;;
49296;SDS011;35163;48.878;18.040;2022-11-11T04:38:15;71.15;;;23.92;;
49296;SDS011;35163;48.878;18.040;2022-11-11T04:41:08;50.60;;;22.38;;
49296;SDS011;35163;48.878;18.040;2022-11-11T04:43:36;51.00;;;22.73;;
49296;SDS011;35163;48.878;18.040;2022-11-11T04:46:22;52.95;;;21.20;;
49296;SDS011;35163;48.878;18.040;2022-11-11T04:48:49;64.43;;;24.65;;
49296;SDS011;35163;48.878;18.040;2022-11-11T04:51:15;50.15;;;22.63;;
49296;SDS011;35163;48.878;18.040;2022-11-11T04:53:42;47.30;;;20.77;;
49296;SDS011;35163;48.878;18.040;2022-11-11T04:56:08;64.43;;;24.20;;
49296;SDS011;35163;48.878;18.040;2022-11-11T04:58:54;57.70;;;22.42;;
49296;SDS011;35163;48.878;18.040;2022-11-11T05:01:40;75.38;;;24.75;;
49296;SDS011;35163;48.878;18.040;2022-11-11T05:04:26;72.85;;;22.52;;
49296;SDS011;35163;48.878;18.040;2022-11-11T05:06:53;56.15;;;22.23;;
49296;SDS011;35163;48.878;18.040;2022-11-11T05:12:05;56.67;;;22.25;;
49296;SDS011;35163;48.878;18.040;2022-11-11T05:14:31;72.78;;;24.23;;
49296;SDS011;35163;48.878;18.040;2022-11-11T05:17:17;90.07;;;25.55;;
49296;SDS011;35163;48.878;18.040;2022-11-11T05:20:02;56.75;;;21.50;;
49296;SDS011;35163;48.878;18.040;2022-11-11T05:25:13;95.22;;;24.02;;
49296;SDS011;35163;48.878;18.040;2022-11-11T05:27:52;80.35;;;22.52;;
49296;SDS011;35163;48.878;18.040;2022-11-11T05:30:19;60.90;;;19.40;;
49296;SDS011;35163;48.878;18.040;2022-11-11T05:32:47;73.68;;;21.75;;
49296;SDS011;35163;48.878;18.040;2022-11-11T05:35:14;92.15;;;21.83;;
49296;SDS011;35163;48.878;18.040;2022-11-11T05:37:42;59.17;;;21.10;;
49296;SDS011;35163;48.878;18.040;2022-11-11T05:40:09;117.53;;;22.20;;
49296;SDS011;35163;48.878;18.040;2022-11-11T05:42:40;92.82;;;23.83;;
49296;SDS011;35163;48.878;18.040;2022-11-11T05:45:13;120.60;;;23.77;;
49296;SDS011;35163;48.878;18.040;2022-11-11T05:47:40;92.55;;;23.33;;
49296;SDS011;35163;48.878;18.040;2022-11-11T05:50:06;55.92;;;21.67;;
49296;SDS011;35163;48.878;18.040;2022-11-11T05:52:33;56.40;;;22.30;;
49296;SDS011;35163;48.878;18.040;2022-11-11T05:54:59;66.35;;;23.17;;
49296;SDS011;35163;48.878;18.040;2022-11-11T05:57:26;74.88;;;20.58;;
49296;SDS011;35163;48.878;18.040;2022-11-11T05:59:53;68.90;;;20.60;;
49296;SDS011;35163;48.878;18.040;2022-11-11T06:02:19;45.90;;;19.05;;
49296;SDS011;35163;48.878;18.040;2022-11-11T06:04:46;53.22;;;19.35;;
49296;SDS011;35163;48.878;18.040;2022-11-11T06:07:13;64.68;;;20.85;;
49296;SDS011;35163;48.878;18.040;2022-11-11T06:09:40;47.55;;;19.35;;
49296;SDS011;35163;48.878;18.040;2022-11-11T06:12:06;45.08;;;20.52;;
49296;SDS011;35163;48.878;18.040;2022-11-11T06:14:33;45.85;;;20.15;;
49296;SDS011;35163;48.878;18.040;2022-11-11T06:16:59;49.03;;;19.73;;
49296;SDS011;35163;48.878;18.040;2022-11-11T06:19:26;51.88;;;21.75;;
49296;SDS011;35163;48.878;18.040;2022-11-11T06:21:52;51.00;;;21.92;;
49296;SDS011;35163;48.878;18.040;2022-11-11T06:24:22;65.50;;;18.90;;
49296;SDS011;35163;48.878;18.040;2022-11-11T06:26:52;50.92;;;20.95;;
49296;SDS011;35163;48.878;18.040;2022-11-11T06:29:19;61.90;;;19.33;;
49296;SDS011;35163;48.878;18.040;2022-11-11T06:31:46;43.42;;;18.75;;
49296;SDS011;35163;48.878;18.040;2022-11-11T06:34:12;56.60;;;20.27;;
49296;SDS011;35163;48.878;18.040;2022-11-11T06:36:39;63.67;;;22.67;;
49296;SDS011;35163;48.878;18.040;2022-11-11T06:39:06;69.90;;;21.45;;
49296;SDS011;35163;48.878;18.040;2022-11-11T06:41:32;57.90;;;21.02;;
49296;SDS011;35163;48.878;18.040;2022-11-11T06:43:59;45.60;;;19.27;;
49296;SDS011;35163;48.878;18.040;2022-11-11T06:46:26;60.38;;;21.95;;
49296;SDS011;35163;48.878;18.040;2022-11-11T06:48:52;58.80;;;21.17;;
49296;SDS011;35163;48.878;18.040;2022-11-11T06:51:19;62.67;;;21.27;;
49296;SDS011;35163;48.878;18.040;2022-11-11T06:53:46;63.03;;;20.80;;
49296;SDS011;35163;48.878;18.040;2022-11-11T06:56:12;51.75;;;20.30;;
49296;SDS011;35163;48.878;18.040;2022-11-11T06:58:39;40.08;;;18.13;;
49296;SDS011;35163;48.878;18.040;2022-11-11T07:01:07;73.20;;;21.00;;
49296;SDS011;35163;48.878;18.040;2022-11-11T07:03:34;57.35;;;21.25;;
49296;SDS011;35163;48.878;18.040;2022-11-11T07:06:02;62.78;;;22.15;;
49296;SDS011;35163;48.878;18.040;2022-11-11T07:08:30;51.60;;;19.48;;
49296;SDS011;35163;48.878;18.040;2022-11-11T07:10:57;48.67;;;19.80;;
49296;SDS011;35163;48.878;18.040;2022-11-11T07:13:30;43.17;;;17.88;;
49296;SDS011;35163;48.878;18.040;2022-11-11T07:15:56;48.40;;;20.00;;
49296;SDS011;35163;48.878;18.040;2022-11-11T07:18:23;50.53;;;19.50;;
49296;SDS011;35163;48.878;18.040;2022-11-11T07:20:50;45.10;;;18.20;;
49296;SDS011;35163;48.878;18.040;2022-11-11T07:23:17;62.55;;;20.48;;
49296;SDS011;35163;48.878;18.040;2022-11-11T07:25:43;40.67;;;17.52;;
49296;SDS011;35163;48.878;18.040;2022-11-11T07:28:10;53.28;;;18.15;;
49296;SDS011;35163;48.878;18.040;2022-11-11T07:30:37;48.38;;;19.88;;
49296;SDS011;35163;48.878;18.040;2022-11-11T07:33:03;42.72;;;17.33;;
49296;SDS011;35163;48.878;18.040;2022-11-11T07:35:30;44.33;;;17.85;;
49296;SDS011;35163;48.878;18.040;2022-11-11T07:37:56;45.15;;;19.42;;
49296;SDS011;35163;48.878;18.040;2022-11-11T07:40:23;45.00;;;18.77;;
49296;SDS011;35163;48.878;18.040;2022-11-11T07:42:50;45.58;;;19.20;;
49296;SDS011;35163;48.878;18.040;2022-11-11T07:45:16;41.70;;;16.80;;
49296;SDS011;35163;48.878;18.040;2022-11-11T07:47:43;45.95;;;17.63;;
49296;SDS011;35163;48.878;18.040;2022-11-11T07:50:10;52.17;;;19.00;;
49296;SDS011;35163;48.878;18.040;2022-11-11T07:52:38;42.90;;;18.95;;
49296;SDS011;35163;48.878;18.040;2022-11-11T07:55:04;43.25;;;18.63;;
49296;SDS011;35163;48.878;18.040;2022-11-11T07:57:31;39.80;;;17.27;;
49296;SDS011;35163;48.878;18.040;2022-11-11T07:59:58;43.83;;;17.38;;
49296;SDS011;35163;48.878;18.040;2022-11-11T08:02:24;31.85;;;15.32;;
49296;SDS011;35163;48.878;18.040;2022-11-11T08:04:51;38.28;;;16.48;;
49296;SDS011;35163;48.878;18.040;2022-11-11T08:07:21;33.25;;;15.85;;
49296;SDS011;35163;48.878;18.040;2022-11-11T08:09:49;36.90;;;15.80;;
49296;SDS011;35163;48.878;18.040;2022-11-11T08:12:17;33.65;;;15.93;;
49296;SDS011;35163;48.878;18.040;2022-11-11T08:15:02;41.15;;;17.85;;
49296;SDS011;35163;48.878;18.040;2022-11-11T08:17:36;33.75;;;15.48;;
49296;SDS011;35163;48.878;18.040;2022-11-11T08:20:04;33.35;;;16.35;;
49296;SDS011;35163;48.878;18.040;2022-11-11T08:22:35;33.00;;;15.43;;
49296;SDS011;35163;48.878;18.040;2022-11-11T08:25:03;29.42;;;12.88;;
49296;SDS011;35163;48.878;18.040;2022-11-11T08:27:32;37.45;;;16.20;;
49296;SDS011;35163;48.878;18.040;2022-11-11T08:29:59;30.30;;;15.77;;
49296;SDS011;35163;48.878;18.040;2022-11-11T08:32:26;31.35;;;14.23;;
49296;SDS011;35163;48.878;18.040;2022-11-11T08:34:53;31.35;;;15.30;;
49296;SDS011;35163;48.878;18.040;2022-11-11T08:37:19;35.17;;;16.55;;
49296;SDS011;35163;48.878;18.040;2022-11-11T08:39:46;40.90;;;18.65;;
49296;SDS011;35163;48.878;18.040;2022-11-11T08:42:12;41.70;;;18.45;;
49296;SDS011;35163;48.878;18.040;2022-11-11T08:44:39;37.38;;;16.77;;
49296;SDS011;35163;48.878;18.040;2022-11-11T08:47:05;41.85;;;16.90;;
49296;SDS011;35163;48.878;18.040;2022-11-11T08:49:32;41.70;;;17.77;;
49296;SDS011;35163;48.878;18.040;2022-11-11T08:51:59;41.72;;;17.27;;
49296;SDS011;35163;48.878;18.040;2022-11-11T08:54:25;40.17;;;16.65;;
49296;SDS011;35163;48.878;18.040;2022-11-11T08:56:52;42.22;;;16.83;;
49296;SDS011;35163;48.878;18.040;2022-11-11T08:59:18;40.10;;;17.50;;
49296;SDS011;35163;48.878;18.040;2022-11-11T09:01:45;37.25;;;16.55;;
49296;SDS011;35163;48.878;18.040;2022-11-11T09:04:11;35.35;;;17.23;;
49296;SDS011;35163;48.878;18.040;2022-11-11T09:06:58;59.28;;;19.60;;
49296;SDS011;35163;48.878;18.040;2022-11-11T09:09:24;45.85;;;19.38;;
49296;SDS011;35163;48.878;18.040;2022-11-11T09:11:51;47.72;;;18.55;;
49296;SDS011;35163;48.878;18.040;2022-11-11T09:14:17;39.75;;;19.02;;
49296;SDS011;35163;48.878;18.040;2022-11-11T09:16:44;40.67;;;19.23;;
49296;SDS011;35163;48.878;18.040;2022-11-11T09:19:11;46.38;;;20.67;;
49296;SDS011;35163;48.878;18.040;2022-11-11T09:21:37;38.38;;;17.50;;
49296;SDS011;35163;48.878;18.040;2022-11-11T09:24:04;47.83;;;19.63;;
49296;SDS011;35163;48.878;18.040;2022-11-11T09:26:31;49.97;;;20.13;;
49296;SDS011;35163;48.878;18.040;2022-11-11T09:28:57;40.20;;;17.70;;
49296;SDS011;35163;48.878;18.040;2022-11-11T09:31:24;53.00;;;21.33;;
49296;SDS011;35163;48.878;18.040;2022-11-11T09:34:11;44.35;;;20.25;;
49296;SDS011;35163;48.878;18.040;2022-11-11T09:36:38;44.30;;;19.52;;
49296;SDS011;35163;48.878;18.040;2022-11-11T09:39:04;46.78;;;20.15;;
49296;SDS011;35163;48.878;18.040;2022-11-11T09:41:37;42.90;;;19.65;;
49296;SDS011;35163;48.878;18.040;2022-11-11T09:50:21;47.88;;;20.75;;
49296;SDS011;35163;48.878;18.040;2022-11-11T09:58:04;244.65;;;30.77;;
49296;SDS011;35163;48.878;18.040;2022-11-11T10:03:17;43.50;;;19.65;;
49296;SDS011;35163;48.878;18.040;2022-11-11T10:05:57;74.35;;;22.17;;
49296;SDS011;35163;48.878;18.040;2022-11-11T10:08:31;48.67;;;20.17;;
49296;SDS011;35163;48.878;18.040;2022-11-11T10:11:02;50.53;;;20.40;;
49296;SDS011;35163;48.878;18.040;2022-11-11T10:13:36;47.08;;;20.15;;
49296;SDS011;35163;48.878;18.040;2022-11-11T10:24:41;49.65;;;20.92;;
49296;SDS011;35163;48.878;18.040;2022-11-11T10:27:20;43.38;;;20.55;;
49296;SDS011;35163;48.878;18.040;2022-11-11T10:29:48;46.20;;;21.13;;
49296;SDS011;35163;48.878;18.040;2022-11-11T10:32:17;45.95;;;21.17;;
49296;SDS011;35163;48.878;18.040;2022-11-11T10:34:47;49.53;;;22.10;;
49296;SDS011;35163;48.878;18.040;2022-11-11T10:37:17;46.60;;;20.13;;
49296;SDS011;35163;48.878;18.040;2022-11-11T10:39:57;54.97;;;22.80;;
49296;SDS011;35163;48.878;18.040;2022-11-11T10:42:30;50.00;;;21.30;;
49296;SDS011;35163;48.878;18.040;2022-11-11T10:45:00;58.38;;;22.05;;
49296;SDS011;35163;48.878;18.040;2022-11-11T10:52:48;56.20;;;21.65;;
49296;SDS011;35163;48.878;18.040;2022-11-11T10:55:28;47.50;;;21.50;;
49296;SDS011;35163;48.878;18.040;2022-11-11T10:58:05;63.78;;;26.02;;
49296;SDS011;35163;48.878;18.040;2022-11-11T11:00:32;56.20;;;24.40;;
49296;SDS011;35163;48.878;18.040;2022-11-11T11:08:30;79.35;;;36.85;;
49296;SDS011;35163;48.878;18.040;2022-11-11T11:14:19;57.60;;;27.00;;
49296;SDS011;35163;48.878;18.040;2022-11-11T11:16:53;58.28;;;26.17;;
49296;SDS011;35163;48.878;18.040;2022-11-11T11:19:24;53.88;;;23.63;;
49296;SDS011;35163;48.878;18.040;2022-11-11T11:21:58;57.28;;;23.60;;
49296;SDS011;35163;48.878;18.040;2022-11-11T11:24:27;61.00;;;25.55;;
49296;SDS011;35163;48.878;18.040;2022-11-11T11:26:59;75.18;;;25.65;;
49296;SDS011;35163;48.878;18.040;2022-11-11T11:29:32;58.20;;;24.92;;
49296;SDS011;35163;48.878;18.040;2022-11-11T11:34:53;59.83;;;26.05;;
49296;SDS011;35163;48.878;18.040;2022-11-11T11:37:22;60.85;;;26.83;;
49296;SDS011;35163;48.878;18.040;2022-11-11T11:40:03;63.72;;;25.05;;
49296;SDS011;35163;48.878;18.040;2022-11-11T11:42:33;51.67;;;24.45;;
49296;SDS011;35163;48.878;18.040;2022-11-11T11:45:14;64.30;;;27.55;;
49296;SDS011;35163;48.878;18.040;2022-11-11T11:47:48;58.08;;;23.00;;
49296;SDS011;35163;48.878;18.040;2022-11-11T11:51:01;50.03;;;24.20;;
49296;SDS011;35163;48.878;18.040;2022-11-11T11:56:44;54.08;;;25.92;;
49296;SDS011;35163;48.878;18.040;2022-11-11T12:05:09;57.90;;;23.50;;
49296;SDS011;35163;48.878;18.040;2022-11-11T12:19:36;52.22;;;24.05;;
49296;SDS011;35163;48.878;18.040;2022-11-11T12:22:14;49.00;;;23.42;;
49296;SDS011;35163;48.878;18.040;2022-11-11T12:31:14;53.95;;;23.63;;
49296;SDS011;35163;48.878;18.040;2022-11-11T12:33:55;48.25;;;24.02;;
49296;SDS011;35163;48.878;18.040;2022-11-11T12:53:35;50.17;;;25.35;;
49296;SDS011;35163;48.878;18.040;2022-11-11T12:59:24;54.67;;;24.50;;
49296;SDS011;35163;48.878;18.040;2022-11-11T13:02:19;52.75;;;25.88;;
49296;SDS011;35163;48.878;18.040;2022-11-11T13:16:00;53.85;;;25.38;;
49296;SDS011;35163;48.878;18.040;2022-11-11T13:18:29;53.47;;;27.02;;
49296;SDS011;35163;48.878;18.040;2022-11-11T13:21:02;49.80;;;24.98;;
49296;SDS011;35163;48.878;18.040;2022-11-11T13:23:35;52.85;;;25.48;;
49296;SDS011;35163;48.878;18.040;2022-11-11T13:26:03;49.67;;;22.90;;
49296;SDS011;35163;48.878;18.040;2022-11-11T13:28:38;50.13;;;24.40;;
49296;SDS011;35163;48.878;18.040;2022-11-11T13:34:03;47.92;;;23.63;;
49296;SDS011;35163;48.878;18.040;2022-11-11T13:36:55;56.60;;;23.40;;
49296;SDS011;35163;48.878;18.040;2022-11-11T13:39:29;44.88;;;23.42;;
49296;SDS011;35163;48.878;18.040;2022-11-11T13:42:00;59.88;;;25.52;;
49296;SDS011;35163;48.878;18.040;2022-11-11T13:47:06;48.22;;;25.80;;
49296;SDS011;35163;48.878;18.040;2022-11-11T13:49:45;52.97;;;24.40;;
49296;SDS011;35163;48.878;18.040;2022-11-11T13:52:23;87.85;;;44.67;;
49296;SDS011;35163;48.878;18.040;2022-11-11T13:55:00;58.47;;;29.63;;
49296;SDS011;35163;48.878;18.040;2022-11-11T13:57:42;54.03;;;26.08;;
49296;SDS011;35163;48.878;18.040;2022-11-11T14:02:43;45.63;;;22.35;;
49296;SDS011;35163;48.878;18.040;2022-11-11T14:05:18;47.65;;;25.45;;
49296;SDS011;35163;48.878;18.040;2022-11-11T14:07:48;54.95;;;28.50;;
49296;SDS011;35163;48.878;18.040;2022-11-11T14:12:55;51.05;;;25.20;;
49296;SDS011;35163;48.878;18.040;2022-11-11T14:20:49;44.60;;;23.00;;
49296;SDS011;35163;48.878;18.040;2022-11-11T14:25:43;44.97;;;24.92;;
49296;SDS011;35163;48.878;18.040;2022-11-11T14:41:58;46.00;;;22.60;;
49296;SDS011;35163;48.878;18.040;2022-11-11T14:49:49;56.03;;;26.33;;
49296;SDS011;35163;48.878;18.040;2022-11-11T14:57:39;51.55;;;24.33;;
49296;SDS011;35163;48.878;18.040;2022-11-11T15:02:52;47.42;;;25.23;;
49296;SDS011;35163;48.878;18.040;2022-11-11T15:08:02;44.83;;;24.65;;
49296;SDS011;35163;48.878;18.040;2022-11-11T15:13:56;50.22;;;26.27;;
49296;SDS011;35163;48.878;18.040;2022-11-11T15:27:54;56.72;;;26.55;;
49296;SDS011;35163;48.878;18.040;2022-11-11T15:30:23;48.40;;;23.63;;
49296;SDS011;35163;48.878;18.040;2022-11-11T15:33:32;51.85;;;26.50;;
49296;SDS011;35163;48.878;18.040;2022-11-11T15:36:12;49.03;;;25.23;;
49296;SDS011;35163;48.878;18.040;2022-11-11T15:38:51;50.80;;;24.92;;
49296;SDS011;35163;48.878;18.040;2022-11-11T15:41:25;55.72;;;25.67;;
49296;SDS011;35163;48.878;18.040;2022-11-11T15:44:00;51.45;;;24.38;;
49296;SDS011;35163;48.878;18.040;2022-11-11T15:46:28;78.18;;;43.38;;
49296;SDS011;35163;48.878;18.040;2022-11-11T15:48:56;132.38;;;69.57;;
49296;SDS011;35163;48.878;18.040;2022-11-11T15:56:58;57.95;;;26.77;;
49296;SDS011;35163;48.878;18.040;2022-11-11T15:59:29;48.40;;;24.50;;
49296;SDS011;35163;48.878;18.040;2022-11-11T16:02:05;49.65;;;24.17;;
49296;SDS011;35163;48.878;18.040;2022-11-11T16:04:38;47.33;;;24.50;;
49296;SDS011;35163;48.878;18.040;2022-11-11T16:07:22;44.80;;;23.20;;
49296;SDS011;35163;48.878;18.040;2022-11-11T16:09:51;44.58;;;22.65;;
49296;SDS011;35163;48.878;18.040;2022-11-11T16:12:23;58.22;;;27.52;;
49296;SDS011;35163;48.878;18.040;2022-11-11T16:14:58;49.95;;;26.02;;
49296;SDS011;35163;48.878;18.040;2022-11-11T16:17:32;50.20;;;26.00;;
49296;SDS011;35163;48.878;18.040;2022-11-11T16:20:04;50.22;;;24.15;;
49296;SDS011;35163;48.878;18.040;2022-11-11T16:22:31;50.95;;;25.42;;
49296;SDS011;35163;48.878;18.040;2022-11-11T16:25:02;60.78;;;26.23;;
49296;SDS011;35163;48.878;18.040;2022-11-11T16:27:30;53.80;;;25.55;;
49296;SDS011;35163;48.878;18.040;2022-11-11T16:32:58;57.30;;;26.63;;
49296;SDS011;35163;48.878;18.040;2022-11-11T16:38:01;51.08;;;25.42;;
49296;SDS011;35163;48.878;18.040;2022-11-11T16:45:46;62.80;;;26.63;;
49296;SDS011;35163;48.878;18.040;2022-11-11T16:51:05;60.17;;;26.83;;
49296;SDS011;35163;48.878;18.040;2022-11-11T16:53:43;56.65;;;25.90;;
49296;SDS011;35163;48.878;18.040;2022-11-11T16:56:16;57.35;;;27.52;;
49296;SDS011;35163;48.878;18.040;2022-11-11T16:58:54;55.78;;;27.45;;
49296;SDS011;35163;48.878;18.040;2022-11-11T17:01:24;57.97;;;27.55;;
49296;SDS011;35163;48.878;18.040;2022-11-11T17:03:52;56.88;;;28.63;;
49296;SDS011;35163;48.878;18.040;2022-11-11T17:06:44;60.60;;;30.55;;
49296;SDS011;35163;48.878;18.040;2022-11-11T17:09:26;61.53;;;29.58;;
49296;SDS011;35163;48.878;18.040;2022-11-11T17:12:02;69.60;;;30.15;;
49296;SDS011;35163;48.878;18.040;2022-11-11T17:14:30;55.30;;;27.65;;
49296;SDS011;35163;48.878;18.040;2022-11-11T17:16:59;53.28;;;26.98;;
49296;SDS011;35163;48.878;18.040;2022-11-11T17:19:28;58.47;;;28.15;;
49296;SDS011;35163;48.878;18.040;2022-11-11T17:22:05;67.50;;;32.45;;
49296;SDS011;35163;48.878;18.040;2022-11-11T17:24:33;65.47;;;34.17;;
49296;SDS011;35163;48.878;18.040;2022-11-11T17:27:00;61.92;;;31.60;;
49296;SDS011;35163;48.878;18.040;2022-11-11T17:29:27;58.85;;;28.85;;
49296;SDS011;35163;48.878;18.040;2022-11-11T17:31:53;56.22;;;29.15;;
49296;SDS011;35163;48.878;18.040;2022-11-11T17:34:20;57.53;;;29.15;;
49296;SDS011;35163;48.878;18.040;2022-11-11T17:36:46;62.67;;;29.92;;
49296;SDS011;35163;48.878;18.040;2022-11-11T17:39:13;57.33;;;28.67;;
49296;SDS011;35163;48.878;18.040;2022-11-11T17:41:40;66.28;;;29.33;;
49296;SDS011;35163;48.878;18.040;2022-11-11T17:44:06;59.22;;;30.88;;
49296;SDS011;35163;48.878;18.040;2022-11-11T17:46:33;59.25;;;31.20;;
49296;SDS011;35163;48.878;18.040;2022-11-11T17:48:59;65.88;;;31.33;;